Time;durP1;ratioP1;P1;durP2;ratioP2;P2;SDS_P1;SDS_P2;PMS_P1;PMS_P2;Temp;Humidity;BMP_temperature;BMP_pressure;BME280_temperature;BME280_humidity;BME280_pressure;Samples;Min_cycle;Max_cycle;Signal;HPM_P1;HPM_P2
2021/03/25 00:00:31;;;;;;;53.60;33.17;;;10.00;74.30;;;;;;4996398;28;20018;-89
2021/03/25 00:02:59;;;;;;;50.10;31.17;;;10.00;74.40;;;;;;4996035;28;20080;-89
2021/03/25 00:05:28;;;;;;;54.38;32.80;;;10.00;74.50;;;;;;4996863;28;20340;-89
2021/03/25 00:07:54;;;;;;;52.90;31.95;;;9.90;74.60;;;;;;5002388;28;20030;-89
2021/03/25 00:10:26;;;;;;;54.72;31.92;;;9.90;74.60;;;;;;5009220;28;20088;-88
2021/03/25 00:12:52;;;;;;;51.60;31.50;;;9.90;74.70;;;;;;5007420;28;20026;-89
2021/03/25 00:15:18;;;;;;;57.20;32.97;;;9.90;74.70;;;;;;4998656;28;20033;-90
2021/03/25 00:17:44;;;;;;;52.95;31.50;;;9.90;74.70;;;;;;4995580;28;20029;-90
2021/03/25 00:20:13;;;;;;;54.05;30.95;;;9.90;74.70;;;;;;4995704;28;20037;-91
2021/03/25 00:22:38;;;;;;;55.10;31.33;;;9.80;74.70;;;;;;4995667;28;20028;-90
2021/03/25 00:25:06;;;;;;;50.90;31.88;;;9.80;74.80;;;;;;4995674;28;20462;-89
2021/03/25 00:27:31;;;;;;;55.58;32.00;;;9.80;74.90;;;;;;4995561;28;20104;-90
2021/03/25 00:29:57;;;;;;;56.15;31.88;;;9.80;74.80;;;;;;5012855;28;20058;-90
2021/03/25 00:32:23;;;;;;;53.75;33.05;;;9.80;74.70;;;;;;4995469;28;20029;-89
2021/03/25 00:34:48;;;;;;;56.17;31.42;;;9.80;74.80;;;;;;4995315;28;20021;-88
2021/03/25 00:37:14;;;;;;;54.67;31.17;;;9.70;74.70;;;;;;5013302;28;20038;-89
2021/03/25 00:39:39;;;;;;;53.83;31.92;;;9.70;74.90;;;;;;4995478;28;20052;-89
2021/03/25 00:42:06;;;;;;;58.38;31.42;;;9.70;74.80;;;;;;4995491;28;20022;-90
2021/03/25 00:44:31;;;;;;;51.28;30.75;;;9.70;74.70;;;;;;4994925;28;20057;-90
2021/03/25 00:46:57;;;;;;;56.03;31.67;;;9.70;74.70;;;;;;4995204;28;20483;-89
2021/03/25 00:49:22;;;;;;;52.95;30.42;;;9.70;74.70;;;;;;4995269;28;20017;-88
2021/03/25 00:51:49;;;;;;;48.80;29.60;;;9.60;74.70;;;;;;4995148;28;20506;-90
2021/03/25 00:54:14;;;;;;;52.30;30.75;;;9.60;74.70;;;;;;4995057;28;20064;-89
2021/03/25 00:56:40;;;;;;;56.42;31.48;;;9.60;75.00;;;;;;5012491;28;20053;-90
2021/03/25 00:59:05;;;;;;;51.38;30.95;;;9.40;75.10;;;;;;4982429;28;20034;-90
2021/03/25 01:01:31;;;;;;;56.28;32.92;;;9.40;75.30;;;;;;4975729;28;20061;-88
2021/03/25 01:03:57;;;;;;;54.58;29.92;;;9.20;75.80;;;;;;4975404;28;20026;-90
2021/03/25 01:06:23;;;;;;;59.33;31.70;;;9.10;76.00;;;;;;4975469;28;20169;-88
2021/03/25 01:08:48;;;;;;;54.85;31.95;;;9.10;76.10;;;;;;4975244;28;20033;-89
2021/03/25 01:11:21;;;;;;;52.17;30.77;;;9.10;76.10;;;;;;4975757;28;20579;-90
2021/03/25 01:13:56;;;;;;;52.88;29.50;;;9.10;76.00;;;;;;4992797;28;20030;-89
2021/03/25 01:16:29;;;;;;;50.47;30.13;;;9.20;75.70;;;;;;4993511;28;20500;-90
2021/03/25 01:18:56;;;;;;;51.88;30.55;;;9.30;75.60;;;;;;4975750;28;20035;-89
2021/03/25 01:21:22;;;;;;;54.00;30.80;;;9.20;75.50;;;;;;4975831;28;20096;-90
2021/03/25 01:23:47;;;;;;;54.78;31.33;;;9.10;75.70;;;;;;4975596;28;20484;-90
2021/03/25 01:26:14;;;;;;;53.78;31.65;;;9.00;75.70;;;;;;4975381;28;20025;-90
2021/03/25 01:28:39;;;;;;;54.40;30.02;;;9.00;76.00;;;;;;4975021;28;20034;-89
2021/03/25 01:31:05;;;;;;;50.20;29.67;;;9.00;76.00;;;;;;4975420;28;20544;-89
2021/03/25 01:33:30;;;;;;;52.15;29.58;;;9.10;75.80;;;;;;4975117;28;20400;-89
2021/03/25 01:35:56;;;;;;;51.67;30.42;;;9.10;75.60;;;;;;4975394;28;20488;-90
2021/03/25 01:38:23;;;;;;;51.58;30.95;;;9.10;75.60;;;;;;4975631;28;20258;-89
2021/03/25 01:40:56;;;;;;;50.85;29.98;;;9.00;75.70;;;;;;4975613;28;20057;-88
2021/03/25 01:43:24;;;;;;;51.35;30.10;;;8.90;75.80;;;;;;4979365;28;20046;-89
2021/03/25 01:46:05;;;;;;;60.80;30.48;;;8.90;76.10;;;;;;4979079;28;20038;-89
2021/03/25 01:48:37;;;;;;;48.22;28.85;;;8.80;76.10;;;;;;4979597;28;20489;-89
2021/03/25 01:51:21;;;;;;;49.80;30.05;;;8.80;76.20;;;;;;4979101;28;20057;-90
2021/03/25 01:54:00;;;;;;;52.78;30.25;;;8.80;76.40;;;;;;4979030;28;20133;-90
2021/03/25 01:56:50;;;;;;;53.13;28.52;;;8.70;77.10;;;;;;4978832;28;20487;-90
2021/03/25 01:59:30;;;;;;;51.78;28.73;;;8.70;76.60;;;;;;4993026;28;20477;-89
2021/03/25 02:02:05;;;;;;;49.92;28.35;;;8.70;76.60;;;;;;4998636;28;20380;-89
2021/03/25 02:04:57;;;;;;;52.42;29.25;;;8.70;76.70;;;;;;4998542;28;20057;-89
2021/03/25 02:07:47;;;;;;;53.33;30.45;;;8.70;76.80;;;;;;4998141;28;20064;-89
2021/03/25 02:10:43;;;;;;;51.97;29.20;;;8.60;77.10;;;;;;5015512;28;20500;-89
2021/03/25 02:13:23;;;;;;;50.20;28.85;;;8.60;77.00;;;;;;4998319;28;20046;-90
2021/03/25 02:15:58;;;;;;;52.25;30.25;;;8.50;77.20;;;;;;4998337;28;20029;-89
2021/03/25 02:18:49;;;;;;;48.75;28.90;;;8.50;77.10;;;;;;4998220;28;20491;-89
2021/03/25 02:21:48;;;;;;;52.85;28.65;;;8.50;77.20;;;;;;4998294;28;20030;-89
2021/03/25 02:24:32;;;;;;;53.35;28.80;;;8.40;77.30;;;;;;4998346;28;20026;-89
2021/03/25 02:27:22;;;;;;;49.58;28.75;;;8.40;77.50;;;;;;5021744;28;20041;-90
2021/03/25 02:30:26;;;;;;;47.05;28.60;;;8.40;77.80;;;;;;5007842;28;20052;-89
2021/03/25 02:32:58;;;;;;;49.97;28.40;;;8.30;77.70;;;;;;4978894;28;20041;-89
2021/03/25 02:35:30;;;;;;;49.30;28.48;;;8.30;77.80;;;;;;5017174;28;20030;-89
2021/03/25 02:38:01;;;;;;;49.80;30.15;;;8.30;77.80;;;;;;5007810;28;20022;-89
2021/03/25 02:40:49;;;;;;;51.45;29.05;;;8.30;77.80;;;;;;4998693;28;20037;-89
2021/03/25 02:43:21;;;;;;;51.30;29.35;;;8.30;78.50;;;;;;4997782;28;20037;-89
2021/03/25 02:45:55;;;;;;;50.37;29.10;;;8.40;77.80;;;;;;4997962;28;20054;-89
2021/03/25 02:48:22;;;;;;;51.83;28.17;;;8.40;77.70;;;;;;4997638;28;20029;-89
2021/03/25 02:51:19;;;;;;;54.13;29.85;;;8.40;77.60;;;;;;4997449;28;20436;-89
2021/03/25 02:53:46;;;;;;;54.10;29.52;;;8.40;77.60;;;;;;4996992;28;20033;-89
2021/03/25 02:56:14;;;;;;;57.38;31.00;;;8.40;77.60;;;;;;4997117;28;20549;-89
2021/03/25 02:58:43;;;;;;;50.95;28.67;;;8.50;77.50;;;;;;4988009;28;20026;-90
2021/03/25 03:01:12;;;;;;;54.28;29.85;;;8.50;77.40;;;;;;4978538;28;20061;-89
2021/03/25 03:03:43;;;;;;;51.38;28.70;;;8.50;77.30;;;;;;4978491;28;20031;-89
2021/03/25 03:06:16;;;;;;;52.60;30.38;;;8.50;77.30;;;;;;4995678;28;20046;-89
2021/03/25 03:08:45;;;;;;;52.10;30.58;;;8.50;77.30;;;;;;4994457;28;20050;-88
2021/03/25 03:11:22;;;;;;;54.33;30.35;;;8.50;77.30;;;;;;4996607;28;20065;-89
2021/03/25 03:14:13;;;;;;;53.13;29.88;;;8.60;77.30;;;;;;4979736;28;20026;-90
2021/03/25 03:16:50;;;;;;;53.17;29.83;;;8.60;77.20;;;;;;4977582;28;20036;-88
2021/03/25 03:19:41;;;;;;;53.25;29.67;;;8.60;77.20;;;;;;4977873;28;20041;-90
2021/03/25 03:22:08;;;;;;;47.75;28.42;;;8.60;77.10;;;;;;4976986;28;20069;-89
2021/03/25 03:24:35;;;;;;;49.50;28.92;;;8.70;77.10;;;;;;4977558;28;20627;-89
2021/03/25 03:27:23;;;;;;;52.55;30.00;;;8.70;77.00;;;;;;4977958;28;20054;-89
2021/03/25 03:29:51;;;;;;;53.25;28.92;;;8.70;77.10;;;;;;4977424;28;20066;-88
2021/03/25 03:32:58;;;;;;;52.92;29.83;;;8.70;77.10;;;;;;4978017;28;20053;-90
2021/03/25 03:35:38;;;;;;;55.67;29.93;;;8.70;77.10;;;;;;4997987;28;20365;-90
2021/03/25 03:38:15;;;;;;;53.67;31.47;;;8.70;77.20;;;;;;4995045;28;20030;-89
2021/03/25 03:40:43;;;;;;;52.97;29.30;;;8.70;77.80;;;;;;4977267;28;20022;-89
2021/03/25 03:43:12;;;;;;;50.78;29.63;;;8.70;77.20;;;;;;4983962;28;20029;-88
2021/03/25 03:45:43;;;;;;;55.10;31.50;;;8.70;77.20;;;;;;4996234;28;20053;-89
2021/03/25 03:48:20;;;;;;;52.97;29.53;;;8.70;77.20;;;;;;4984553;28;20027;-89
2021/03/25 03:50:50;;;;;;;52.53;29.83;;;8.70;77.20;;;;;;4977136;28;20029;-88
2021/03/25 03:53:16;;;;;;;53.28;30.35;;;8.70;77.20;;;;;;4994583;28;20387;-88
2021/03/25 03:55:42;;;;;;;52.60;30.70;;;8.70;77.20;;;;;;4976784;28;20117;-90
2021/03/25 03:58:07;;;;;;;51.53;30.40;;;8.70;77.30;;;;;;4981266;28;20032;-89
2021/03/25 04:00:40;;;;;;;50.80;29.40;;;8.70;77.40;;;;;;4996276;28;20131;-89
2021/03/25 04:03:27;;;;;;;53.17;30.15;;;8.70;77.40;;;;;;4995579;28;20029;-89
2021/03/25 04:06:11;;;;;;;51.08;29.30;;;8.70;77.60;;;;;;4995912;28;20026;-90
2021/03/25 04:09:15;;;;;;;54.03;29.95;;;8.60;77.80;;;;;;4996700;28;20057;-89
2021/03/25 04:11:55;;;;;;;49.90;29.00;;;8.60;77.80;;;;;;4983538;28;20038;-90
2021/03/25 04:14:29;;;;;;;52.83;29.65;;;8.60;77.80;;;;;;4996243;28;20037;-89
2021/03/25 04:17:03;;;;;;;53.88;29.95;;;8.60;78.00;;;;;;4996756;28;20034;-90
2021/03/25 04:19:35;;;;;;;54.25;31.50;;;8.60;77.70;;;;;;5013945;28;20029;-88
2021/03/25 04:22:07;;;;;;;53.90;31.13;;;8.50;77.70;;;;;;5012745;28;20479;-90
2021/03/25 04:24:59;;;;;;;55.57;30.67;;;8.60;77.80;;;;;;4996608;28;20032;-90
2021/03/25 04:27:31;;;;;;;51.22;29.75;;;8.50;77.90;;;;;;5015901;28;20026;-89
2021/03/25 04:30:05;;;;;;;50.23;29.77;;;8.60;78.00;;;;;;4997073;28;20092;-88
2021/03/25 04:32:31;;;;;;;50.33;29.37;;;8.50;77.80;;;;;;4996798;28;20097;-90
2021/03/25 04:34:59;;;;;;;54.13;30.23;;;8.60;77.70;;;;;;4995757;28;20144;-89
2021/03/25 04:37:27;;;;;;;58.05;32.08;;;8.60;77.80;;;;;;4996153;28;20026;-89
2021/03/25 04:39:54;;;;;;;56.63;30.07;;;8.60;77.80;;;;;;4997070;28;20053;-90
2021/03/25 04:42:19;;;;;;;55.50;32.92;;;8.50;78.30;;;;;;4996612;28;20076;-89
2021/03/25 04:44:51;;;;;;;56.03;31.60;;;8.50;77.90;;;;;;4996634;28;20026;-88
2021/03/25 04:47:22;;;;;;;53.20;30.20;;;8.50;77.90;;;;;;5013452;28;20032;-90
2021/03/25 04:49:59;;;;;;;51.85;30.92;;;8.50;77.90;;;;;;4996320;28;20380;-90
2021/03/25 04:52:29;;;;;;;54.38;32.22;;;8.60;77.90;;;;;;4996395;28;20057;-90
2021/03/25 04:55:06;;;;;;;57.87;32.53;;;8.60;78.00;;;;;;5014090;28;20089;-90
2021/03/25 04:57:38;;;;;;;58.05;32.42;;;8.60;78.00;;;;;;4997245;28;20022;-89
2021/03/25 05:00:18;;;;;;;57.67;33.63;;;8.60;78.10;;;;;;4992949;28;20030;-88
2021/03/25 05:02:44;;;;;;;57.40;32.83;;;8.50;78.00;;;;;;4992781;28;20031;-89
2021/03/25 05:05:21;;;;;;;58.17;33.80;;;8.60;78.00;;;;;;4994084;28;20022;-89
2021/03/25 05:07:53;;;;;;;61.70;34.47;;;8.60;78.70;;;;;;5002843;28;20098;-88
2021/03/25 05:10:24;;;;;;;59.90;34.70;;;8.70;77.90;;;;;;5012729;28;20047;-88
2021/03/25 05:12:52;;;;;;;52.80;31.75;;;8.70;77.80;;;;;;5015030;28;20110;-88
2021/03/25 05:15:20;;;;;;;63.42;35.08;;;8.70;77.90;;;;;;5011797;28;20022;-88
2021/03/25 05:18:00;;;;;;;58.13;33.80;;;8.70;77.80;;;;;;4994707;28;20052;-89
2021/03/25 05:21:01;;;;;;;56.75;33.10;;;8.60;77.80;;;;;;4993956;28;20084;-87
2021/03/25 05:23:48;;;;;;;58.33;33.90;;;8.70;77.90;;;;;;4992256;28;20088;-89
2021/03/25 05:26:34;;;;;;;63.47;34.33;;;8.70;77.80;;;;;;4995237;28;20538;-89
2021/03/25 05:29:03;;;;;;;60.93;32.37;;;8.70;78.00;;;;;;4992577;28;20122;-89
2021/03/25 05:31:32;;;;;;;59.60;34.63;;;8.70;77.80;;;;;;4992693;28;20026;-88
2021/03/25 05:34:02;;;;;;;57.50;35.08;;;8.80;77.80;;;;;;4991821;28;20066;-88
2021/03/25 05:36:29;;;;;;;59.63;33.90;;;8.70;78.00;;;;;;4976076;28;20110;-91
2021/03/25 05:38:56;;;;;;;57.47;33.43;;;8.80;77.80;;;;;;4991608;28;20026;-90
2021/03/25 05:41:48;;;;;;;58.97;33.63;;;8.80;77.80;;;;;;4991780;28;20377;-90
2021/03/25 05:44:41;;;;;;;57.90;32.73;;;8.80;77.80;;;;;;4991485;28;20030;-89
2021/03/25 05:47:36;;;;;;;57.07;32.27;;;8.80;77.90;;;;;;4975681;28;20026;-90
2021/03/25 05:50:08;;;;;;;59.30;31.93;;;8.80;77.80;;;;;;4975071;28;20033;-90
2021/03/25 05:52:55;;;;;;;55.10;31.23;;;8.80;77.80;;;;;;4975594;28;20350;-89
2021/03/25 05:55:45;;;;;;;56.08;30.90;;;8.80;78.60;;;;;;4993794;28;20496;-85
2021/03/25 05:58:15;;;;;;;56.92;31.98;;;8.80;78.00;;;;;;4998979;28;20056;-85
2021/03/25 06:00:49;;;;;;;53.23;30.93;;;8.80;77.90;;;;;;5016065;28;20053;-83
2021/03/25 06:03:17;;;;;;;59.47;32.70;;;8.80;78.00;;;;;;4998837;28;20058;-84
2021/03/25 06:05:47;;;;;;;57.75;31.65;;;8.80;78.00;;;;;;4998123;28;20030;-87
2021/03/25 06:08:12;;;;;;;;;;;8.70;78.30;;;;;;5000491;28;20026;-84
2021/03/25 06:10:43;;;;;;;55.73;30.40;;;8.70;78.20;;;;;;5014928;28;19995;-84
2021/03/25 06:13:30;;;;;;;60.57;34.53;;;8.70;78.40;;;;;;4996249;28;20541;-86
2021/03/25 06:16:46;;;;;;;57.17;32.30;;;8.60;78.70;;;;;;4996877;28;20045;-84
2021/03/25 06:19:29;;;;;;;55.50;32.53;;;8.70;78.60;;;;;;4935668;29;20127;-86
2021/03/25 06:22:04;;;;;;;54.30;31.87;;;8.70;78.30;;;;;;4934884;29;20067;-86
2021/03/25 06:24:29;;;;;;;63.67;34.67;;;8.80;78.30;;;;;;4976368;28;20034;-85
2021/03/25 06:27:24;;;;;;;59.80;33.43;;;8.70;78.50;;;;;;4997214;28;20368;-87
2021/03/25 06:29:54;;;;;;;61.80;34.70;;;8.70;78.60;;;;;;5000640;28;20034;-85
2021/03/25 06:32:31;;;;;;;63.60;33.77;;;8.70;78.80;;;;;;4997590;28;20030;-86
2021/03/25 06:35:38;;;;;;;58.57;33.13;;;8.70;78.60;;;;;;5016260;28;20030;-85
2021/03/25 06:38:38;;;;;;;59.77;33.40;;;8.70;78.50;;;;;;4932283;29;20035;-83
2021/03/25 06:41:11;;;;;;;55.43;31.80;;;8.80;78.50;;;;;;4923534;29;20299;-84
2021/03/25 06:43:53;;;;;;;57.17;33.17;;;8.90;78.20;;;;;;4983752;28;20034;-87
2021/03/25 06:46:34;;;;;;;60.95;35.15;;;8.90;78.20;;;;;;5015332;28;20076;-86
2021/03/25 06:49:04;;;;;;;60.75;34.88;;;9.00;77.90;;;;;;5016693;28;20022;-87
2021/03/25 06:51:32;;;;;;;68.80;35.77;;;9.00;77.80;;;;;;5016210;28;20034;-87
2021/03/25 06:54:16;;;;;;;61.23;34.77;;;9.00;77.80;;;;;;5015734;28;20109;-87
2021/03/25 06:56:45;;;;;;;61.00;35.00;;;9.00;77.90;;;;;;4998201;28;20028;-87
2021/03/25 06:59:36;;;;;;;61.35;36.67;;;9.00;78.00;;;;;;5016393;28;20117;-85
2021/03/25 07:02:07;;;;;;;56.42;34.15;;;8.90;79.00;;;;;;5001869;28;20029;-88
2021/03/25 07:04:38;;;;;;;65.13;36.90;;;8.90;78.20;;;;;;4995164;28;20117;-87
2021/03/25 07:07:08;;;;;;;59.37;34.00;;;8.80;78.90;;;;;;4999580;28;20029;-87
2021/03/25 07:09:38;;;;;;;64.80;35.25;;;8.80;78.60;;;;;;4999968;28;20464;-89
2021/03/25 07:12:12;;;;;;;63.28;33.58;;;8.80;78.70;;;;;;5000873;28;20038;-87
2021/03/25 07:14:41;;;;;;;64.50;35.77;;;8.80;79.00;;;;;;4998559;28;20045;-87
2021/03/25 07:17:09;;;;;;;63.70;35.72;;;8.80;78.90;;;;;;4998455;28;20091;-86
2021/03/25 07:19:37;;;;;;;62.03;35.37;;;8.80;79.00;;;;;;4999593;28;20056;-88
2021/03/25 07:22:26;;;;;;;64.20;35.87;;;8.80;78.90;;;;;;5001174;28;20109;-87
2021/03/25 07:24:53;;;;;;;59.13;35.30;;;8.80;78.90;;;;;;5015669;28;20026;-89
2021/03/25 07:27:24;;;;;;;60.58;35.05;;;8.80;79.00;;;;;;4999754;28;20085;-87
2021/03/25 07:30:02;;;;;;;60.40;35.73;;;8.80;78.90;;;;;;4998070;28;20030;-89
2021/03/25 07:32:50;;;;;;;59.83;35.27;;;8.90;79.00;;;;;;4989337;28;20037;-90
2021/03/25 07:35:31;;;;;;;59.70;34.53;;;8.90;79.10;;;;;;5001508;28;20087;-87
2021/03/25 07:38:01;;;;;;;62.30;35.00;;;8.90;79.10;;;;;;5004436;28;20029;-88
2021/03/25 07:40:32;;;;;;;58.53;34.43;;;8.80;79.00;;;;;;4997739;28;20034;-84
2021/03/25 07:43:22;;;;;;;58.20;34.40;;;8.80;79.30;;;;;;5000581;28;20026;-86
2021/03/25 07:46:04;;;;;;;58.60;34.53;;;8.80;79.50;;;;;;5001311;28;20392;-87
2021/03/25 07:48:30;;;;;;;60.77;34.87;;;8.80;79.70;;;;;;4999957;28;20110;-89
2021/03/25 07:51:10;;;;;;;61.67;35.83;;;8.80;79.50;;;;;;5003117;28;20045;-88
2021/03/25 07:53:38;;;;;;;58.67;35.67;;;8.80;79.60;;;;;;5017640;28;20045;-85
2021/03/25 07:56:15;;;;;;;59.47;34.60;;;8.90;79.50;;;;;;4998732;28;20128;-85
2021/03/25 07:58:44;;;;;;;60.20;34.00;;;8.90;79.60;;;;;;5016099;28;20037;-87
2021/03/25 08:01:13;;;;;;;64.10;34.90;;;8.90;79.50;;;;;;5015255;28;20037;-87
2021/03/25 08:03:47;;;;;;;57.42;34.45;;;8.90;79.70;;;;;;5015861;28;20026;-86
2021/03/25 08:06:38;;;;;;;62.70;34.10;;;8.90;79.60;;;;;;4997602;28;20021;-86
2021/03/25 08:09:13;;;;;;;60.50;32.73;;;8.90;79.50;;;;;;5014571;28;20065;-85
2021/03/25 08:12:01;;;;;;;59.88;32.65;;;9.00;79.40;;;;;;5016391;28;20045;-87
2021/03/25 08:14:29;;;;;;;55.83;32.37;;;9.00;79.40;;;;;;4997981;28;20114;-87
2021/03/25 08:17:14;;;;;;;54.93;33.43;;;9.00;79.40;;;;;;4996888;28;20025;-86
2021/03/25 08:19:40;;;;;;;55.38;34.55;;;9.00;79.40;;;;;;4998685;28;20281;-82
2021/03/25 08:22:48;;;;;;;60.10;32.93;;;9.00;79.40;;;;;;4998172;28;20036;-84
2021/03/25 08:25:32;;;;;;;57.60;32.78;;;9.10;79.40;;;;;;5013175;28;20040;-83
2021/03/25 08:28:35;;;;;;;59.07;32.40;;;9.10;79.20;;;;;;5017163;28;20030;-82
2021/03/25 08:31:31;;;;;;;56.37;32.43;;;9.10;80.10;;;;;;5018812;28;20108;-84
2021/03/25 08:34:21;;;;;;;59.88;31.38;;;9.20;79.50;;;;;;4999645;28;20052;-82
2021/03/25 08:37:42;;;;;;;55.20;31.60;;;9.10;79.40;;;;;;5017097;28;20029;-84
2021/03/25 08:40:34;;;;;;;57.13;32.20;;;9.20;79.40;;;;;;4960182;28;20131;-86
2021/03/25 08:57:13;;;;;;;51.47;29.73;;;9.30;79.10;;;;;;5005226;28;20078;-85
2021/03/25 08:59:57;;;;;;;54.92;30.15;;;9.30;79.00;;;;;;4999446;28;20070;-87
2021/03/25 09:02:38;;;;;;;53.57;30.37;;;9.40;79.10;;;;;;4999432;28;20026;-88
2021/03/25 09:05:25;;;;;;;53.30;30.20;;;9.40;79.10;;;;;;4980247;28;20029;-87
2021/03/25 09:07:54;;;;;;;56.40;32.33;;;9.40;78.90;;;;;;4993946;28;20030;-86
2021/03/25 09:10:23;;;;;;;55.80;30.35;;;9.40;79.30;;;;;;4975989;28;20030;-88
2021/03/25 09:12:49;;;;;;;55.50;31.65;;;9.50;78.90;;;;;;4975227;28;20066;-86
2021/03/25 09:15:15;;;;;;;56.40;30.13;;;9.50;79.20;;;;;;4959235;28;20528;-87
2021/03/25 09:18:08;;;;;;;56.67;30.97;;;9.50;78.80;;;;;;4975804;28;20062;-85
2021/03/25 09:20:42;;;;;;;56.87;32.17;;;9.50;79.00;;;;;;4955963;28;20034;-87
2021/03/25 09:23:32;;;;;;;55.72;30.88;;;9.50;79.10;;;;;;4976124;28;20030;-86
2021/03/25 09:26:19;;;;;;;54.27;32.30;;;9.50;79.00;;;;;;4974366;28;20038;-85
2021/03/25 09:28:59;;;;;;;58.23;32.07;;;9.50;79.10;;;;;;4947367;28;20113;-86
2021/03/25 09:31:26;;;;;;;64.70;33.70;;;9.50;79.40;;;;;;4976116;28;20070;-86
2021/03/25 09:33:53;;;;;;;62.20;33.03;;;9.50;79.40;;;;;;4976764;28;20026;-86
2021/03/25 09:36:19;;;;;;;63.35;32.65;;;9.50;79.40;;;;;;4960337;28;20050;-85
2021/03/25 09:38:57;;;;;;;56.03;32.65;;;9.50;79.20;;;;;;4977906;28;20034;-85
2021/03/25 09:41:26;;;;;;;55.92;32.25;;;9.60;79.30;;;;;;4980932;28;20039;-85
2021/03/25 09:44:10;;;;;;;57.25;32.33;;;9.60;79.60;;;;;;4987205;28;20007;-87
2021/03/25 09:47:37;;;;;;;56.53;31.98;;;9.60;79.10;;;;;;4997138;28;20039;-85
2021/03/25 09:50:23;;;;;;;53.47;30.92;;;9.60;79.20;;;;;;4940251;29;20085;-94
2021/03/25 09:53:03;;;;;;;51.58;30.45;;;9.70;79.30;;;;;;4982391;28;20015;-91
2021/03/25 09:55:33;;;;;;;50.05;29.27;;;9.70;79.80;;;;;;4986021;28;20070;-91
2021/03/25 09:58:00;;;;;;;59.28;31.60;;;9.70;79.40;;;;;;5008584;28;20026;-92
2021/03/25 10:00:27;;;;;;;55.70;30.90;;;9.70;78.90;;;;;;5009857;28;20057;-92
2021/03/25 10:03:05;;;;;;;48.80;28.83;;;9.80;78.90;;;;;;5009863;28;20038;-92
2021/03/25 10:05:31;;;;;;;52.80;30.52;;;9.80;78.90;;;;;;5043001;23;20433;-83
2021/03/25 10:07:57;;;;;;;55.17;28.83;;;9.80;78.80;;;;;;5040997;28;20081;-82
2021/03/25 10:10:23;;;;;;;52.33;29.77;;;9.90;79.30;;;;;;5022875;28;20026;-82
2021/03/25 10:13:01;;;;;;;54.25;31.13;;;10.00;79.10;;;;;;5021035;28;20140;-82
2021/03/25 10:18:04;;;;;;;53.75;31.25;;;10.40;79.00;;;;;;5039449;28;20048;-81
2021/03/25 10:21:00;;;;;;;57.65;33.40;;;10.50;78.00;;;;;;5040714;28;20029;-81
2021/03/25 10:23:42;;;;;;;52.72;30.70;;;10.60;77.50;;;;;;5025097;28;20100;-81
2021/03/25 10:26:11;;;;;;;50.25;29.27;;;10.60;78.00;;;;;;5042601;28;20076;-82
2021/03/25 10:28:43;;;;;;;51.05;29.58;;;10.60;77.40;;;;;;5025779;28;20456;-81
2021/03/25 10:31:29;;;;;;;54.70;30.85;;;10.70;77.30;;;;;;5006627;28;20427;-83
2021/03/25 10:34:20;;;;;;;52.70;30.45;;;10.70;77.70;;;;;;5001776;28;20038;-82
2021/03/25 10:37:04;;;;;;;52.20;30.42;;;10.70;77.80;;;;;;5036388;28;20044;-82
2021/03/25 10:39:40;;;;;;;55.42;33.33;;;10.70;77.50;;;;;;5034719;28;20029;-80
2021/03/25 10:42:23;;;;;;;51.60;29.20;;;10.80;77.40;;;;;;5028633;28;20049;-81
2021/03/25 10:44:49;;;;;;;55.03;29.20;;;10.80;77.10;;;;;;5021380;28;20408;-81
2021/03/25 10:47:21;;;;;;;52.35;29.77;;;10.90;76.90;;;;;;5021645;28;20056;-80
2021/03/25 10:49:54;;;;;;;51.55;28.48;;;11.00;76.80;;;;;;5037982;28;20886;-84
2021/03/25 10:52:38;;;;;;;53.10;28.98;;;11.00;76.80;;;;;;5019941;28;20227;-83
2021/03/25 10:55:17;;;;;;;49.40;27.27;;;11.10;76.60;;;;;;5033371;28;20021;-83
2021/03/25 10:57:47;;;;;;;50.22;28.52;;;11.20;76.70;;;;;;5001548;28;20053;-82
2021/03/25 11:00:36;;;;;;;46.38;26.35;;;11.40;76.10;;;;;;5000708;28;20068;-81
2021/03/25 11:03:16;;;;;;;43.65;26.40;;;11.60;75.00;;;;;;5041271;28;20057;-83
2021/03/25 11:05:52;;;;;;;47.25;26.20;;;11.80;74.70;;;;;;5021013;28;20084;-85
2021/03/25 11:08:32;;;;;;;50.25;26.70;;;11.90;74.30;;;;;;5039148;28;20021;-84
2021/03/25 11:11:02;;;;;;;49.55;27.33;;;12.10;73.80;;;;;;5020100;28;20029;-85
2021/03/25 11:13:29;;;;;;;46.55;28.17;;;12.20;73.00;;;;;;5014361;28;20557;-86
2021/03/25 11:16:17;;;;;;;51.42;28.27;;;12.20;72.40;;;;;;5029870;28;20021;-83
2021/03/25 11:18:56;;;;;;;48.70;29.35;;;12.30;72.80;;;;;;5022934;28;20029;-86
2021/03/25 11:21:33;;;;;;;48.75;27.55;;;12.40;73.10;;;;;;5000744;28;20030;-83
2021/03/25 11:24:11;;;;;;;50.88;29.48;;;12.40;72.90;;;;;;4999141;28;20495;-84
2021/03/25 11:26:37;;;;;;;51.20;28.88;;;12.50;72.60;;;;;;5014147;28;20474;-85
2021/03/25 11:29:06;;;;;;;50.20;28.20;;;12.50;72.70;;;;;;5034919;28;20043;-82
2021/03/25 11:31:33;;;;;;;49.85;29.15;;;12.50;72.70;;;;;;5018948;28;20586;-82
2021/03/25 11:33:59;;;;;;;49.40;29.77;;;12.50;72.60;;;;;;4999905;28;20092;-84
2021/03/25 11:36:44;;;;;;;52.72;28.58;;;12.60;72.70;;;;;;5002200;28;20438;-82
2021/03/25 11:39:14;;;;;;;53.78;30.17;;;12.60;72.00;;;;;;4999585;28;20030;-83
2021/03/25 11:41:41;;;;;;;52.05;28.75;;;12.70;72.40;;;;;;4997860;28;20022;-79
2021/03/25 11:44:08;;;;;;;52.17;30.15;;;12.80;72.10;;;;;;5015731;28;20026;-81
2021/03/25 11:46:40;;;;;;;55.45;33.25;;;12.90;72.00;;;;;;5015310;28;20101;-82
2021/03/25 11:49:15;;;;;;;52.97;31.48;;;13.00;72.00;;;;;;5015861;28;20407;-81
2021/03/25 11:51:46;;;;;;;47.95;31.65;;;13.20;70.60;;;;;;5034380;28;20029;-81
2021/03/25 11:54:38;;;;;;;51.45;30.98;;;13.30;71.20;;;;;;5058410;28;20179;-82
2021/03/25 11:57:26;;;;;;;47.95;29.70;;;13.40;69.80;;;;;;5039771;28;20053;-82
2021/03/25 12:00:07;;;;;;;52.47;31.45;;;13.40;69.10;;;;;;5022510;28;20026;-82
2021/03/25 12:02:34;;;;;;;47.28;29.00;;;13.50;70.80;;;;;;5002114;28;20032;-82
2021/03/25 12:05:24;;;;;;;51.08;28.73;;;13.60;70.50;;;;;;5002881;28;20454;-81
2021/03/25 12:08:08;;;;;;;;;;;13.70;70.60;;;;;;5031888;28;20025;-82
2021/03/25 12:10:34;;;;;;;51.13;29.40;;;13.80;69.30;;;;;;5015894;28;19960;-81
2021/03/25 12:13:00;;;;;;;59.58;32.42;;;13.90;69.50;;;;;;5002068;28;20030;-83
2021/03/25 12:15:26;;;;;;;51.17;29.52;;;13.90;69.60;;;;;;5004785;28;20022;-81
2021/03/25 12:18:04;;;;;;;52.45;32.30;;;14.00;69.20;;;;;;5038774;28;20098;-81
2021/03/25 12:20:38;;;;;;;51.20;30.55;;;14.10;69.30;;;;;;5032461;28;20038;-81
2021/03/25 12:23:07;;;;;;;51.08;30.88;;;14.20;69.20;;;;;;5001574;28;20026;-83
2021/03/25 12:25:33;;;;;;;49.78;30.70;;;14.30;69.20;;;;;;5007530;28;20025;-83
2021/03/25 12:27:59;;;;;;;51.58;31.58;;;14.30;69.00;;;;;;5039765;28;20088;-81
2021/03/25 12:30:25;;;;;;;52.60;32.38;;;14.40;68.60;;;;;;5018971;28;20022;-85
2021/03/25 12:32:51;;;;;;;61.70;33.88;;;14.40;68.20;;;;;;5020961;28;20040;-82
2021/03/25 12:35:22;;;;;;;51.75;32.88;;;14.40;68.00;;;;;;5001970;28;20026;-82
2021/03/25 12:37:48;;;;;;;52.45;31.02;;;14.50;68.20;;;;;;5019757;28;20021;-82
2021/03/25 12:40:17;;;;;;;54.20;34.03;;;14.60;68.20;;;;;;5002346;28;20029;-82
2021/03/25 12:42:43;;;;;;;53.70;32.78;;;14.70;67.40;;;;;;5021112;28;20048;-83
2021/03/25 12:45:20;;;;;;;55.95;33.40;;;14.80;67.90;;;;;;5017948;28;20025;-82
2021/03/25 12:47:45;;;;;;;57.15;32.50;;;14.70;67.50;;;;;;5026783;28;20461;-82
2021/03/25 12:50:11;;;;;;;55.65;34.35;;;14.60;67.30;;;;;;5003489;28;20034;-81
2021/03/25 12:52:37;;;;;;;53.28;32.63;;;14.60;67.20;;;;;;5023958;28;20025;-83
2021/03/25 12:55:03;;;;;;;54.40;33.50;;;14.70;66.50;;;;;;5023713;28;20089;-82
2021/03/25 12:57:28;;;;;;;52.15;33.88;;;14.80;66.60;;;;;;5035686;28;20390;-82
2021/03/25 12:59:57;;;;;;;55.90;34.38;;;14.80;66.70;;;;;;5042046;28;20425;-82
2021/03/25 13:02:23;;;;;;;;;;;14.90;66.50;;;;;;5022771;28;20429;-82
2021/03/25 13:04:49;;;;;;;57.60;32.90;;;14.90;66.50;;;;;;5020620;28;19913;-83
2021/03/25 13:07:14;;;;;;;58.15;32.85;;;14.90;67.20;;;;;;5022701;28;20506;-83
2021/03/25 13:09:40;;;;;;;55.75;34.33;;;15.10;67.50;;;;;;5021923;28;20109;-83
2021/03/25 13:12:08;;;;;;;53.42;33.33;;;15.10;66.60;;;;;;5022311;28;20025;-83
2021/03/25 13:14:33;;;;;;;55.90;32.60;;;15.10;65.10;;;;;;5013848;28;20060;-82
2021/03/25 13:16:59;;;;;;;53.78;32.28;;;15.00;66.10;;;;;;5021288;28;20025;-82
2021/03/25 13:19:24;;;;;;;48.95;32.35;;;15.00;66.60;;;;;;5021105;28;20507;-82
2021/03/25 13:21:50;;;;;;;53.28;31.70;;;14.90;66.60;;;;;;5006221;28;20026;-81
2021/03/25 13:24:15;;;;;;;46.35;28.17;;;15.00;66.40;;;;;;5009546;28;20510;-83
2021/03/25 13:26:41;;;;;;;52.03;31.20;;;15.10;65.90;;;;;;5020245;28;20028;-82
2021/03/25 13:29:06;;;;;;;47.38;31.48;;;15.30;65.60;;;;;;5014830;28;20184;-81
2021/03/25 13:31:32;;;;;;;48.70;31.15;;;15.40;65.20;;;;;;5018452;28;20033;-84